sensor_id;sensor_type;location;lat;lon;timestamp;P1;durP1;ratioP1;P2;durP2;ratioP2
1390;SDS011;690;51.454;7.194;2023-02-28T00:01:10;4.88;;;4.05;;
1390;SDS011;690;51.454;7.194;2023-02-28T00:03:38;4.20;;;3.55;;
1390;SDS011;690;51.454;7.194;2023-02-28T00:06:07;6.97;;;3.72;;
1390;SDS011;690;51.454;7.194;2023-02-28T00:08:35;5.78;;;3.63;;
1390;SDS011;690;51.454;7.194;2023-02-28T00:11:02;5.20;;;3.60;;
1390;SDS011;690;51.454;7.194;2023-02-28T00:13:30;5.28;;;4.22;;
1390;SDS011;690;51.454;7.194;2023-02-28T00:16:00;5.22;;;3.70;;
1390;SDS011;690;51.454;7.194;2023-02-28T00:18:28;5.72;;;4.30;;
1390;SDS011;690;51.454;7.194;2023-02-28T00:20:55;5.60;;;4.30;;
1390;SDS011;690;51.454;7.194;2023-02-28T00:23:23;7.68;;;3.80;;
1390;SDS011;690;51.454;7.194;2023-02-28T00:25:50;6.82;;;3.70;;
1390;SDS011;690;51.454;7.194;2023-02-28T00:28:18;5.30;;;3.85;;
1390;SDS011;690;51.454;7.194;2023-02-28T00:30:45;3.85;;;3.00;;
1390;SDS011;690;51.454;7.194;2023-02-28T00:33:12;5.63;;;3.13;;
1390;SDS011;690;51.454;7.194;2023-02-28T00:35:39;5.63;;;2.78;;
1390;SDS011;690;51.454;7.194;2023-02-28T00:38:06;6.25;;;2.83;;
1390;SDS011;690;51.454;7.194;2023-02-28T00:40:35;10.18;;;3.03;;
1390;SDS011;690;51.454;7.194;2023-02-28T00:43:02;5.97;;;3.20;;
1390;SDS011;690;51.454;7.194;2023-02-28T00:45:29;3.42;;;3.00;;
1390;SDS011;690;51.454;7.194;2023-02-28T00:47:56;3.03;;;2.25;;
1390;SDS011;690;51.454;7.194;2023-02-28T00:50:22;6.63;;;3.90;;
1390;SDS011;690;51.454;7.194;2023-02-28T00:52:49;5.68;;;3.20;;
1390;SDS011;690;51.454;7.194;2023-02-28T00:55:16;5.15;;;3.47;;
1390;SDS011;690;51.454;7.194;2023-02-28T00:57:44;5.18;;;2.85;;
1390;SDS011;690;51.454;7.194;2023-02-28T01:00:12;3.75;;;2.75;;
1390;SDS011;690;51.454;7.194;2023-02-28T01:02:39;3.83;;;2.58;;
1390;SDS011;690;51.454;7.194;2023-02-28T01:05:06;3.78;;;3.00;;
1390;SDS011;690;51.454;7.194;2023-02-28T01:07:34;4.72;;;2.35;;
1390;SDS011;690;51.454;7.194;2023-02-28T01:10:01;3.97;;;2.83;;
1390;SDS011;690;51.454;7.194;2023-02-28T01:12:27;4.95;;;2.70;;
1390;SDS011;690;51.454;7.194;2023-02-28T01:14:56;5.70;;;2.40;;
1390;SDS011;690;51.454;7.194;2023-02-28T01:17:23;3.50;;;2.65;;
1390;SDS011;690;51.454;7.194;2023-02-28T01:19:52;3.78;;;2.33;;
1390;SDS011;690;51.454;7.194;2023-02-28T01:22:19;3.65;;;2.50;;
1390;SDS011;690;51.454;7.194;2023-02-28T01:24:46;3.60;;;2.13;;
1390;SDS011;690;51.454;7.194;2023-02-28T01:27:13;4.05;;;2.10;;
1390;SDS011;690;51.454;7.194;2023-02-28T01:29:40;4.10;;;2.20;;
1390;SDS011;690;51.454;7.194;2023-02-28T01:32:08;7.15;;;2.13;;
1390;SDS011;690;51.454;7.194;2023-02-28T01:34:35;5.70;;;2.70;;
1390;SDS011;690;51.454;7.194;2023-02-28T01:37:02;6.30;;;2.85;;
1390;SDS011;690;51.454;7.194;2023-02-28T01:39:29;3.78;;;2.63;;
1390;SDS011;690;51.454;7.194;2023-02-28T01:41:56;3.15;;;2.75;;
1390;SDS011;690;51.454;7.194;2023-02-28T01:47:24;3.00;;;2.30;;
1390;SDS011;690;51.454;7.194;2023-02-28T01:49:55;2.90;;;2.45;;
1390;SDS011;690;51.454;7.194;2023-02-28T01:52:22;3.55;;;2.35;;
1390;SDS011;690;51.454;7.194;2023-02-28T01:54:50;5.10;;;2.88;;
1390;SDS011;690;51.454;7.194;2023-02-28T01:57:20;3.60;;;2.55;;
1390;SDS011;690;51.454;7.194;2023-02-28T01:59:52;3.63;;;2.67;;
1390;SDS011;690;51.454;7.194;2023-02-28T02:02:25;4.80;;;3.10;;
1390;SDS011;690;51.454;7.194;2023-02-28T02:04:54;4.40;;;3.15;;
1390;SDS011;690;51.454;7.194;2023-02-28T02:07:26;4.00;;;3.05;;
1390;SDS011;690;51.454;7.194;2023-02-28T02:10:01;4.47;;;2.95;;
1390;SDS011;690;51.454;7.194;2023-02-28T02:12:33;4.40;;;2.55;;
1390;SDS011;690;51.454;7.194;2023-02-28T02:15:09;4.45;;;3.10;;
1390;SDS011;690;51.454;7.194;2023-02-28T02:17:44;5.03;;;2.72;;
1390;SDS011;690;51.454;7.194;2023-02-28T02:20:27;3.58;;;2.75;;
1390;SDS011;690;51.454;7.194;2023-02-28T02:26:24;6.85;;;2.50;;
1390;SDS011;690;51.454;7.194;2023-02-28T02:29:23;2.75;;;2.17;;
1390;SDS011;690;51.454;7.194;2023-02-28T02:35:32;3.10;;;2.58;;
1390;SDS011;690;51.454;7.194;2023-02-28T02:38:08;4.13;;;3.10;;
1390;SDS011;690;51.454;7.194;2023-02-28T02:40:42;3.38;;;2.58;;
1390;SDS011;690;51.454;7.194;2023-02-28T02:43:15;4.15;;;2.95;;
1390;SDS011;690;51.454;7.194;2023-02-28T02:45:46;4.53;;;2.75;;
1390;SDS011;690;51.454;7.194;2023-02-28T02:48:19;5.30;;;3.00;;
1390;SDS011;690;51.454;7.194;2023-02-28T02:50:53;4.18;;;2.60;;
1390;SDS011;690;51.454;7.194;2023-02-28T02:53:22;2.70;;;2.28;;
1390;SDS011;690;51.454;7.194;2023-02-28T02:55:55;4.28;;;2.60;;
1390;SDS011;690;51.454;7.194;2023-02-28T02:58:25;4.30;;;2.45;;
1390;SDS011;690;51.454;7.194;2023-02-28T03:00:58;5.00;;;2.75;;
1390;SDS011;690;51.454;7.194;2023-02-28T03:03:28;3.75;;;3.15;;
1390;SDS011;690;51.454;7.194;2023-02-28T03:05:58;4.20;;;3.05;;
1390;SDS011;690;51.454;7.194;2023-02-28T03:08:28;4.05;;;2.63;;
1390;SDS011;690;51.454;7.194;2023-02-28T03:10:59;5.18;;;2.90;;
1390;SDS011;690;51.454;7.194;2023-02-28T03:13:38;4.05;;;3.08;;
1390;SDS011;690;51.454;7.194;2023-02-28T03:16:32;7.22;;;3.10;;
1390;SDS011;690;51.454;7.194;2023-02-28T03:19:04;4.28;;;2.80;;
1390;SDS011;690;51.454;7.194;2023-02-28T03:21:54;5.53;;;3.10;;
1390;SDS011;690;51.454;7.194;2023-02-28T03:24:30;6.22;;;2.80;;
1390;SDS011;690;51.454;7.194;2023-02-28T03:27:07;2.17;;;1.98;;
1390;SDS011;690;51.454;7.194;2023-02-28T03:29:39;5.28;;;2.58;;
1390;SDS011;690;51.454;7.194;2023-02-28T03:32:12;4.03;;;2.35;;
1390;SDS011;690;51.454;7.194;2023-02-28T03:34:47;6.25;;;2.65;;
1390;SDS011;690;51.454;7.194;2023-02-28T03:37:22;5.93;;;2.30;;
1390;SDS011;690;51.454;7.194;2023-02-28T03:39:53;5.95;;;2.72;;
1390;SDS011;690;51.454;7.194;2023-02-28T03:42:23;6.68;;;3.08;;
1390;SDS011;690;51.454;7.194;2023-02-28T03:44:54;3.80;;;2.63;;
1390;SDS011;690;51.454;7.194;2023-02-28T03:47:24;3.95;;;3.35;;
1390;SDS011;690;51.454;7.194;2023-02-28T03:49:58;3.25;;;2.50;;
1390;SDS011;690;51.454;7.194;2023-02-28T03:52:31;3.63;;;2.72;;
1390;SDS011;690;51.454;7.194;2023-02-28T03:55:02;3.25;;;2.55;;
1390;SDS011;690;51.454;7.194;2023-02-28T03:57:33;4.75;;;2.90;;
1390;SDS011;690;51.454;7.194;2023-02-28T04:00:06;3.40;;;2.50;;
1390;SDS011;690;51.454;7.194;2023-02-28T04:02:37;6.35;;;2.45;;
1390;SDS011;690;51.454;7.194;2023-02-28T04:05:04;5.95;;;2.95;;
1390;SDS011;690;51.454;7.194;2023-02-28T04:07:33;5.00;;;2.55;;
1390;SDS011;690;51.454;7.194;2023-02-28T04:10:00;5.43;;;2.55;;
1390;SDS011;690;51.454;7.194;2023-02-28T04:12:27;2.97;;;2.60;;
1390;SDS011;690;51.454;7.194;2023-02-28T04:14:54;6.80;;;2.75;;
1390;SDS011;690;51.454;7.194;2023-02-28T04:17:20;5.13;;;2.50;;
1390;SDS011;690;51.454;7.194;2023-02-28T04:19:47;3.88;;;2.58;;
1390;SDS011;690;51.454;7.194;2023-02-28T04:22:15;4.38;;;2.40;;
1390;SDS011;690;51.454;7.194;2023-02-28T04:24:44;4.07;;;3.00;;
1390;SDS011;690;51.454;7.194;2023-02-28T04:27:11;3.55;;;2.35;;
1390;SDS011;690;51.454;7.194;2023-02-28T04:29:38;3.30;;;2.40;;
1390;SDS011;690;51.454;7.194;2023-02-28T04:32:04;3.50;;;2.67;;
1390;SDS011;690;51.454;7.194;2023-02-28T04:34:31;5.15;;;2.90;;
1390;SDS011;690;51.454;7.194;2023-02-28T04:36:58;2.58;;;2.38;;
1390;SDS011;690;51.454;7.194;2023-02-28T04:39:25;3.65;;;2.70;;
1390;SDS011;690;51.454;7.194;2023-02-28T04:41:54;4.65;;;2.70;;
1390;SDS011;690;51.454;7.194;2023-02-28T04:44:21;4.10;;;2.97;;
1390;SDS011;690;51.454;7.194;2023-02-28T04:46:48;3.83;;;2.72;;
1390;SDS011;690;51.454;7.194;2023-02-28T04:49:15;4.03;;;2.63;;
1390;SDS011;690;51.454;7.194;2023-02-28T04:51:42;3.25;;;2.65;;
1390;SDS011;690;51.454;7.194;2023-02-28T04:54:09;5.10;;;3.38;;
1390;SDS011;690;51.454;7.194;2023-02-28T04:56:36;4.25;;;2.72;;
1390;SDS011;690;51.454;7.194;2023-02-28T04:59:04;5.05;;;3.80;;
1390;SDS011;690;51.454;7.194;2023-02-28T05:01:32;4.10;;;3.10;;
1390;SDS011;690;51.454;7.194;2023-02-28T05:04:01;3.67;;;2.92;;
1390;SDS011;690;51.454;7.194;2023-02-28T05:06:31;9.15;;;3.83;;
1390;SDS011;690;51.454;7.194;2023-02-28T05:08:59;5.30;;;3.30;;
1390;SDS011;690;51.454;7.194;2023-02-28T05:11:27;4.22;;;3.42;;
1390;SDS011;690;51.454;7.194;2023-02-28T05:13:59;7.40;;;2.53;;
1390;SDS011;690;51.454;7.194;2023-02-28T05:16:28;6.45;;;3.35;;
1390;SDS011;690;51.454;7.194;2023-02-28T05:18:55;4.03;;;3.05;;
1390;SDS011;690;51.454;7.194;2023-02-28T05:21:23;3.42;;;2.83;;
1390;SDS011;690;51.454;7.194;2023-02-28T05:23:52;3.88;;;2.85;;
1390;SDS011;690;51.454;7.194;2023-02-28T05:26:20;3.95;;;3.03;;
1390;SDS011;690;51.454;7.194;2023-02-28T05:28:47;4.10;;;2.90;;
1390;SDS011;690;51.454;7.194;2023-02-28T05:31:14;4.55;;;3.05;;
1390;SDS011;690;51.454;7.194;2023-02-28T05:33:42;3.95;;;3.42;;
1390;SDS011;690;51.454;7.194;2023-02-28T05:36:09;4.78;;;3.65;;
1390;SDS011;690;51.454;7.194;2023-02-28T05:38:36;5.78;;;3.42;;
1390;SDS011;690;51.454;7.194;2023-02-28T05:41:06;4.88;;;3.45;;
1390;SDS011;690;51.454;7.194;2023-02-28T05:43:34;5.53;;;3.47;;
1390;SDS011;690;51.454;7.194;2023-02-28T05:46:03;5.63;;;3.30;;
1390;SDS011;690;51.454;7.194;2023-02-28T05:48:30;6.88;;;3.47;;
1390;SDS011;690;51.454;7.194;2023-02-28T05:50:59;6.10;;;3.53;;
1390;SDS011;690;51.454;7.194;2023-02-28T05:53:26;5.55;;;3.60;;
1390;SDS011;690;51.454;7.194;2023-02-28T05:55:53;4.35;;;3.30;;
1390;SDS011;690;51.454;7.194;2023-02-28T05:58:20;6.25;;;3.15;;
1390;SDS011;690;51.454;7.194;2023-02-28T06:00:47;4.97;;;3.05;;
1390;SDS011;690;51.454;7.194;2023-02-28T06:03:14;5.50;;;3.28;;
1390;SDS011;690;51.454;7.194;2023-02-28T06:05:41;4.95;;;3.47;;
1390;SDS011;690;51.454;7.194;2023-02-28T06:08:09;6.10;;;3.63;;
1390;SDS011;690;51.454;7.194;2023-02-28T06:10:36;6.53;;;4.63;;
1390;SDS011;690;51.454;7.194;2023-02-28T06:13:03;10.45;;;5.78;;
1390;SDS011;690;51.454;7.194;2023-02-28T06:15:31;7.85;;;4.68;;
1390;SDS011;690;51.454;7.194;2023-02-28T06:17:58;6.05;;;4.57;;
1390;SDS011;690;51.454;7.194;2023-02-28T06:20:25;8.27;;;4.90;;
1390;SDS011;690;51.454;7.194;2023-02-28T06:22:54;8.65;;;5.50;;
1390;SDS011;690;51.454;7.194;2023-02-28T06:25:24;8.25;;;5.03;;
1390;SDS011;690;51.454;7.194;2023-02-28T06:27:51;6.88;;;4.80;;
1390;SDS011;690;51.454;7.194;2023-02-28T06:30:18;11.15;;;5.13;;
1390;SDS011;690;51.454;7.194;2023-02-28T06:32:48;6.93;;;3.95;;
1390;SDS011;690;51.454;7.194;2023-02-28T06:35:15;7.75;;;4.32;;
1390;SDS011;690;51.454;7.194;2023-02-28T06:37:42;7.28;;;4.78;;
1390;SDS011;690;51.454;7.194;2023-02-28T06:40:10;5.65;;;4.00;;
1390;SDS011;690;51.454;7.194;2023-02-28T06:42:39;6.60;;;4.95;;
1390;SDS011;690;51.454;7.194;2023-02-28T06:45:06;12.88;;;7.50;;
1390;SDS011;690;51.454;7.194;2023-02-28T06:47:35;15.88;;;8.35;;
1390;SDS011;690;51.454;7.194;2023-02-28T06:50:02;21.48;;;12.73;;
1390;SDS011;690;51.454;7.194;2023-02-28T06:52:29;14.30;;;9.65;;
1390;SDS011;690;51.454;7.194;2023-02-28T06:54:56;15.57;;;7.93;;
1390;SDS011;690;51.454;7.194;2023-02-28T06:57:26;10.20;;;6.30;;
1390;SDS011;690;51.454;7.194;2023-02-28T06:59:57;6.55;;;4.95;;
1390;SDS011;690;51.454;7.194;2023-02-28T07:02:24;6.07;;;5.05;;
1390;SDS011;690;51.454;7.194;2023-02-28T07:04:51;7.82;;;4.75;;
1390;SDS011;690;51.454;7.194;2023-02-28T07:07:18;4.95;;;3.95;;
1390;SDS011;690;51.454;7.194;2023-02-28T07:09:45;5.38;;;3.85;;
1390;SDS011;690;51.454;7.194;2023-02-28T07:12:12;6.95;;;4.38;;
1390;SDS011;690;51.454;7.194;2023-02-28T07:14:38;7.20;;;4.50;;
1390;SDS011;690;51.454;7.194;2023-02-28T07:17:07;6.13;;;4.60;;
1390;SDS011;690;51.454;7.194;2023-02-28T07:19:36;7.15;;;4.70;;
1390;SDS011;690;51.454;7.194;2023-02-28T07:22:04;8.60;;;5.43;;
1390;SDS011;690;51.454;7.194;2023-02-28T07:24:31;13.15;;;7.88;;
1390;SDS011;690;51.454;7.194;2023-02-28T07:26:58;6.70;;;5.60;;
1390;SDS011;690;51.454;7.194;2023-02-28T07:29:25;10.57;;;5.45;;
1390;SDS011;690;51.454;7.194;2023-02-28T07:31:52;6.18;;;4.20;;
1390;SDS011;690;51.454;7.194;2023-02-28T07:34:21;11.13;;;4.57;;
1390;SDS011;690;51.454;7.194;2023-02-28T07:36:48;5.47;;;4.28;;
1390;SDS011;690;51.454;7.194;2023-02-28T07:39:18;8.05;;;4.75;;
1390;SDS011;690;51.454;7.194;2023-02-28T07:41:45;7.60;;;4.57;;
1390;SDS011;690;51.454;7.194;2023-02-28T07:44:12;7.45;;;4.30;;
1390;SDS011;690;51.454;7.194;2023-02-28T07:46:39;6.00;;;4.22;;
1390;SDS011;690;51.454;7.194;2023-02-28T07:49:06;8.63;;;4.97;;
1390;SDS011;690;51.454;7.194;2023-02-28T07:51:34;11.05;;;4.50;;
1390;SDS011;690;51.454;7.194;2023-02-28T07:54:01;10.20;;;4.72;;
1390;SDS011;690;51.454;7.194;2023-02-28T07:56:28;7.57;;;4.53;;
1390;SDS011;690;51.454;7.194;2023-02-28T07:58:55;6.43;;;5.10;;
1390;SDS011;690;51.454;7.194;2023-02-28T08:01:22;7.97;;;5.05;;
1390;SDS011;690;51.454;7.194;2023-02-28T08:03:48;6.30;;;4.63;;
1390;SDS011;690;51.454;7.194;2023-02-28T08:06:16;8.00;;;5.05;;
1390;SDS011;690;51.454;7.194;2023-02-28T08:08:46;7.80;;;5.10;;
1390;SDS011;690;51.454;7.194;2023-02-28T08:11:13;8.40;;;5.20;;
1390;SDS011;690;51.454;7.194;2023-02-28T08:13:41;10.63;;;7.28;;
1390;SDS011;690;51.454;7.194;2023-02-28T08:16:09;9.00;;;6.20;;
1390;SDS011;690;51.454;7.194;2023-02-28T08:18:36;6.00;;;5.25;;
1390;SDS011;690;51.454;7.194;2023-02-28T08:21:06;7.65;;;4.47;;
1390;SDS011;690;51.454;7.194;2023-02-28T08:23:34;5.55;;;4.43;;
1390;SDS011;690;51.454;7.194;2023-02-28T08:26:02;7.75;;;4.93;;
1390;SDS011;690;51.454;7.194;2023-02-28T08:28:30;5.53;;;4.13;;
1390;SDS011;690;51.454;7.194;2023-02-28T08:30:57;6.47;;;4.72;;
1390;SDS011;690;51.454;7.194;2023-02-28T08:33:25;8.77;;;4.65;;
1390;SDS011;690;51.454;7.194;2023-02-28T08:35:53;6.13;;;4.10;;
1390;SDS011;690;51.454;7.194;2023-02-28T08:38:20;5.47;;;4.35;;
1390;SDS011;690;51.454;7.194;2023-02-28T08:40:47;5.20;;;3.80;;
1390;SDS011;690;51.454;7.194;2023-02-28T08:43:15;8.65;;;4.93;;
1390;SDS011;690;51.454;7.194;2023-02-28T08:45:42;6.65;;;3.97;;
1390;SDS011;690;51.454;7.194;2023-02-28T08:48:09;6.88;;;4.30;;
1390;SDS011;690;51.454;7.194;2023-02-28T08:50:36;8.43;;;4.80;;
1390;SDS011;690;51.454;7.194;2023-02-28T08:53:03;5.30;;;4.35;;
1390;SDS011;690;51.454;7.194;2023-02-28T08:55:29;7.47;;;4.75;;
1390;SDS011;690;51.454;7.194;2023-02-28T08:57:56;11.75;;;5.47;;
1390;SDS011;690;51.454;7.194;2023-02-28T09:00:24;9.20;;;4.53;;
1390;SDS011;690;51.454;7.194;2023-02-28T09:02:51;6.10;;;4.38;;
1390;SDS011;690;51.454;7.194;2023-02-28T09:05:19;5.85;;;4.72;;
1390;SDS011;690;51.454;7.194;2023-02-28T09:07:46;4.35;;;3.33;;
1390;SDS011;690;51.454;7.194;2023-02-28T09:10:13;7.97;;;3.90;;
1390;SDS011;690;51.454;7.194;2023-02-28T09:12:40;5.32;;;3.95;;
1390;SDS011;690;51.454;7.194;2023-02-28T09:15:07;5.00;;;3.75;;
1390;SDS011;690;51.454;7.194;2023-02-28T09:17:36;5.75;;;3.30;;
1390;SDS011;690;51.454;7.194;2023-02-28T09:20:03;12.82;;;4.18;;
1390;SDS011;690;51.454;7.194;2023-02-28T09:22:31;5.45;;;4.53;;
1390;SDS011;690;51.454;7.194;2023-02-28T09:24:58;7.00;;;4.40;;
1390;SDS011;690;51.454;7.194;2023-02-28T09:27:24;5.30;;;3.70;;
1390;SDS011;690;51.454;7.194;2023-02-28T09:29:51;4.70;;;3.65;;
1390;SDS011;690;51.454;7.194;2023-02-28T09:32:18;6.22;;;4.65;;
1390;SDS011;690;51.454;7.194;2023-02-28T09:34:46;5.80;;;3.80;;
1390;SDS011;690;51.454;7.194;2023-02-28T09:37:13;7.78;;;4.20;;
1390;SDS011;690;51.454;7.194;2023-02-28T09:39:40;7.47;;;3.78;;
1390;SDS011;690;51.454;7.194;2023-02-28T09:42:11;4.10;;;3.60;;
1390;SDS011;690;51.454;7.194;2023-02-28T09:44:46;3.25;;;2.50;;
1390;SDS011;690;51.454;7.194;2023-02-28T09:47:17;4.53;;;2.38;;
1390;SDS011;690;51.454;7.194;2023-02-28T09:49:53;4.47;;;2.97;;
1390;SDS011;690;51.454;7.194;2023-02-28T09:52:24;4.20;;;3.03;;
1390;SDS011;690;51.454;7.194;2023-02-28T09:54:55;2.95;;;2.20;;
1390;SDS011;690;51.454;7.194;2023-02-28T09:57:32;3.20;;;2.35;;
1390;SDS011;690;51.454;7.194;2023-02-28T10:00:06;4.68;;;4.28;;
1390;SDS011;690;51.454;7.194;2023-02-28T10:02:42;4.53;;;3.40;;
1390;SDS011;690;51.454;7.194;2023-02-28T10:05:21;6.25;;;3.75;;
1390;SDS011;690;51.454;7.194;2023-02-28T10:07:53;5.70;;;3.40;;
1390;SDS011;690;51.454;7.194;2023-02-28T10:10:32;5.20;;;2.42;;
1390;SDS011;690;51.454;7.194;2023-02-28T10:13:04;3.50;;;3.20;;
1390;SDS011;690;51.454;7.194;2023-02-28T10:15:38;3.22;;;2.55;;
1390;SDS011;690;51.454;7.194;2023-02-28T10:18:06;9.02;;;3.20;;
1390;SDS011;690;51.454;7.194;2023-02-28T10:20:40;4.93;;;2.70;;
1390;SDS011;690;51.454;7.194;2023-02-28T10:23:10;3.40;;;2.78;;
1390;SDS011;690;51.454;7.194;2023-02-28T10:25:42;4.82;;;2.63;;
1390;SDS011;690;51.454;7.194;2023-02-28T10:28:14;2.85;;;2.40;;
1390;SDS011;690;51.454;7.194;2023-02-28T10:30:43;4.35;;;1.88;;
1390;SDS011;690;51.454;7.194;2023-02-28T10:33:17;2.47;;;2.00;;
1390;SDS011;690;51.454;7.194;2023-02-28T10:35:48;2.70;;;2.28;;
1390;SDS011;690;51.454;7.194;2023-02-28T10:38:17;2.50;;;2.20;;
1390;SDS011;690;51.454;7.194;2023-02-28T10:40:57;5.72;;;2.65;;
1390;SDS011;690;51.454;7.194;2023-02-28T10:43:30;3.30;;;2.20;;
1390;SDS011;690;51.454;7.194;2023-02-28T10:46:01;3.90;;;2.60;;
1390;SDS011;690;51.454;7.194;2023-02-28T10:48:32;6.80;;;2.33;;
1390;SDS011;690;51.454;7.194;2023-02-28T10:51:04;3.38;;;2.50;;
1390;SDS011;690;51.454;7.194;2023-02-28T10:53:37;5.32;;;2.30;;
1390;SDS011;690;51.454;7.194;2023-02-28T10:56:17;3.25;;;2.00;;
1390;SDS011;690;51.454;7.194;2023-02-28T10:58:48;3.80;;;2.10;;
1390;SDS011;690;51.454;7.194;2023-02-28T11:01:18;5.05;;;2.00;;
1390;SDS011;690;51.454;7.194;2023-02-28T11:03:46;2.63;;;2.13;;
1390;SDS011;690;51.454;7.194;2023-02-28T11:06:16;2.90;;;2.30;;
1390;SDS011;690;51.454;7.194;2023-02-28T11:08:46;2.77;;;2.10;;
1390;SDS011;690;51.454;7.194;2023-02-28T11:11:15;2.83;;;2.20;;
1390;SDS011;690;51.454;7.194;2023-02-28T11:13:43;4.47;;;2.47;;
1390;SDS011;690;51.454;7.194;2023-02-28T11:16:11;3.00;;;2.37;;
1390;SDS011;690;51.454;7.194;2023-02-28T11:18:41;4.10;;;2.47;;
1390;SDS011;690;51.454;7.194;2023-02-28T11:21:16;3.63;;;2.47;;
1390;SDS011;690;51.454;7.194;2023-02-28T11:23:49;2.23;;;2.03;;
1390;SDS011;690;51.454;7.194;2023-02-28T11:29:11;4.80;;;2.57;;
1390;SDS011;690;51.454;7.194;2023-02-28T11:31:45;5.13;;;2.57;;
1390;SDS011;690;51.454;7.194;2023-02-28T11:34:32;2.80;;;2.60;;
1390;SDS011;690;51.454;7.194;2023-02-28T11:37:01;2.60;;;2.23;;
1390;SDS011;690;51.454;7.194;2023-02-28T11:39:30;3.90;;;2.47;;
1390;SDS011;690;51.454;7.194;2023-02-28T11:42:01;2.80;;;2.60;;
1390;SDS011;690;51.454;7.194;2023-02-28T11:44:40;3.40;;;3.03;;
1390;SDS011;690;51.454;7.194;2023-02-28T11:47:17;3.30;;;3.00;;
1390;SDS011;690;51.454;7.194;2023-02-28T11:49:55;3.00;;;2.50;;
1390;SDS011;690;51.454;7.194;2023-02-28T11:52:31;3.30;;;2.40;;
1390;SDS011;690;51.454;7.194;2023-02-28T11:55:08;3.70;;;3.37;;
1390;SDS011;690;51.454;7.194;2023-02-28T11:57:52;5.10;;;2.30;;
1390;SDS011;690;51.454;7.194;2023-02-28T12:00:40;3.07;;;2.87;;
1390;SDS011;690;51.454;7.194;2023-02-28T12:03:19;3.50;;;2.47;;
1390;SDS011;690;51.454;7.194;2023-02-28T12:05:55;5.87;;;3.13;;
1390;SDS011;690;51.454;7.194;2023-02-28T12:08:40;2.60;;;2.40;;
1390;SDS011;690;51.454;7.194;2023-02-28T12:11:27;2.60;;;2.40;;
1390;SDS011;690;51.454;7.194;2023-02-28T12:14:14;4.70;;;2.87;;
1390;SDS011;690;51.454;7.194;2023-02-28T12:17:02;3.40;;;2.67;;
1390;SDS011;690;51.454;7.194;2023-02-28T12:19:39;17.37;;;7.57;;
1390;SDS011;690;51.454;7.194;2023-02-28T12:28:10;7.50;;;4.17;;
1390;SDS011;690;51.454;7.194;2023-02-28T12:30:38;3.80;;;3.40;;
1390;SDS011;690;51.454;7.194;2023-02-28T12:33:12;4.00;;;3.70;;
1390;SDS011;690;51.454;7.194;2023-02-28T12:35:44;3.40;;;3.10;;
1390;SDS011;690;51.454;7.194;2023-02-28T12:38:17;4.93;;;3.87;;
1390;SDS011;690;51.454;7.194;2023-02-28T12:40:48;4.87;;;4.10;;
1390;SDS011;690;51.454;7.194;2023-02-28T12:43:20;4.20;;;3.20;;
1390;SDS011;690;51.454;7.194;2023-02-28T12:45:52;3.07;;;2.87;;
1390;SDS011;690;51.454;7.194;2023-02-28T12:48:24;6.03;;;4.50;;
1390;SDS011;690;51.454;7.194;2023-02-28T12:50:55;5.20;;;2.83;;
1390;SDS011;690;51.454;7.194;2023-02-28T12:53:23;4.67;;;3.50;;
1390;SDS011;690;51.454;7.194;2023-02-28T12:55:56;3.27;;;3.03;;
1390;SDS011;690;51.454;7.194;2023-02-28T12:58:37;5.20;;;3.47;;
1390;SDS011;690;51.454;7.194;2023-02-28T13:04:16;10.53;;;3.63;;
1390;SDS011;690;51.454;7.194;2023-02-28T13:07:08;9.90;;;3.57;;
1390;SDS011;690;51.454;7.194;2023-02-28T13:09:51;4.47;;;3.73;;
1390;SDS011;690;51.454;7.194;2023-02-28T13:12:19;4.57;;;4.10;;
1390;SDS011;690;51.454;7.194;2023-02-28T13:14:49;5.97;;;3.60;;
1390;SDS011;690;51.454;7.194;2023-02-28T13:17:17;5.40;;;4.17;;
1390;SDS011;690;51.454;7.194;2023-02-28T13:19:46;4.63;;;4.10;;
1390;SDS011;690;51.454;7.194;2023-02-28T13:22:36;7.10;;;3.93;;
1390;SDS011;690;51.454;7.194;2023-02-28T13:31:26;10.03;;;4.30;;
1390;SDS011;690;51.454;7.194;2023-02-28T13:34:12;7.10;;;4.20;;
1390;SDS011;690;51.454;7.194;2023-02-28T13:36:41;8.90;;;3.83;;
1390;SDS011;690;51.454;7.194;2023-02-28T13:42:31;5.73;;;4.13;;
1390;SDS011;690;51.454;7.194;2023-02-28T13:45:21;9.30;;;4.10;;
1390;SDS011;690;51.454;7.194;2023-02-28T13:47:55;5.37;;;3.30;;
1390;SDS011;690;51.454;7.194;2023-02-28T13:50:29;10.27;;;4.60;;
1390;SDS011;690;51.454;7.194;2023-02-28T13:56:01;4.23;;;3.17;;
1390;SDS011;690;51.454;7.194;2023-02-28T13:58:35;4.70;;;3.70;;
1390;SDS011;690;51.454;7.194;2023-02-28T14:01:16;7.50;;;3.70;;
1390;SDS011;690;51.454;7.194;2023-02-28T14:04:00;7.43;;;3.87;;
1390;SDS011;690;51.454;7.194;2023-02-28T14:06:46;10.77;;;4.50;;
1390;SDS011;690;51.454;7.194;2023-02-28T14:09:19;7.40;;;3.97;;
1390;SDS011;690;51.454;7.194;2023-02-28T14:11:50;3.27;;;3.07;;
1390;SDS011;690;51.454;7.194;2023-02-28T14:17:22;3.97;;;3.60;;
1390;SDS011;690;51.454;7.194;2023-02-28T14:19:52;4.07;;;3.67;;
1390;SDS011;690;51.454;7.194;2023-02-28T14:22:32;5.00;;;4.00;;
1390;SDS011;690;51.454;7.194;2023-02-28T14:25:16;4.30;;;3.70;;
1390;SDS011;690;51.454;7.194;2023-02-28T14:27:50;5.77;;;4.83;;
1390;SDS011;690;51.454;7.194;2023-02-28T14:30:52;4.77;;;4.37;;
1390;SDS011;690;51.454;7.194;2023-02-28T14:33:27;12.60;;;5.10;;
1390;SDS011;690;51.454;7.194;2023-02-28T14:36:06;8.87;;;4.17;;
1390;SDS011;690;51.454;7.194;2023-02-28T14:38:40;21.90;;;6.50;;
1390;SDS011;690;51.454;7.194;2023-02-28T14:41:13;11.30;;;5.07;;
1390;SDS011;690;51.454;7.194;2023-02-28T14:43:54;10.60;;;4.30;;
1390;SDS011;690;51.454;7.194;2023-02-28T14:46:22;4.30;;;3.67;;
1390;SDS011;690;51.454;7.194;2023-02-28T14:48:53;4.53;;;4.13;;
1390;SDS011;690;51.454;7.194;2023-02-28T14:51:22;3.83;;;3.53;;
1390;SDS011;690;51.454;7.194;2023-02-28T14:53:51;5.77;;;4.10;;
1390;SDS011;690;51.454;7.194;2023-02-28T14:56:24;15.23;;;4.67;;
1390;SDS011;690;51.454;7.194;2023-02-28T14:58:55;4.50;;;3.30;;
1390;SDS011;690;51.454;7.194;2023-02-28T15:01:23;7.87;;;4.57;;
1390;SDS011;690;51.454;7.194;2023-02-28T15:03:59;11.50;;;4.60;;
1390;SDS011;690;51.454;7.194;2023-02-28T15:06:29;29.00;;;7.50;;
1390;SDS011;690;51.454;7.194;2023-02-28T15:09:07;17.07;;;7.17;;
1390;SDS011;690;51.454;7.194;2023-02-28T15:11:35;11.63;;;4.73;;
1390;SDS011;690;51.454;7.194;2023-02-28T15:14:04;7.17;;;3.40;;
1390;SDS011;690;51.454;7.194;2023-02-28T15:16:31;5.27;;;3.80;;
1390;SDS011;690;51.454;7.194;2023-02-28T15:19:04;4.00;;;3.57;;
1390;SDS011;690;51.454;7.194;2023-02-28T15:21:35;4.10;;;3.53;;
1390;SDS011;690;51.454;7.194;2023-02-28T15:24:04;15.57;;;5.33;;
1390;SDS011;690;51.454;7.194;2023-02-28T15:26:34;6.30;;;4.77;;
1390;SDS011;690;51.454;7.194;2023-02-28T15:29:05;4.17;;;3.77;;
1390;SDS011;690;51.454;7.194;2023-02-28T15:31:33;8.50;;;4.60;;
1390;SDS011;690;51.454;7.194;2023-02-28T15:34:06;8.17;;;3.60;;
1390;SDS011;690;51.454;7.194;2023-02-28T15:36:43;12.53;;;4.30;;
1390;SDS011;690;51.454;7.194;2023-02-28T15:39:20;17.63;;;4.30;;
1390;SDS011;690;51.454;7.194;2023-02-28T15:41:48;8.70;;;3.70;;
1390;SDS011;690;51.454;7.194;2023-02-28T15:44:17;4.77;;;3.83;;
1390;SDS011;690;51.454;7.194;2023-02-28T15:46:56;14.20;;;4.90;;
1390;SDS011;690;51.454;7.194;2023-02-28T15:49:26;5.53;;;3.80;;
1390;SDS011;690;51.454;7.194;2023-02-28T15:51:57;3.50;;;3.20;;
1390;SDS011;690;51.454;7.194;2023-02-28T15:54:27;4.37;;;3.97;;
1390;SDS011;690;51.454;7.194;2023-02-28T15:56:57;7.60;;;4.53;;
1390;SDS011;690;51.454;7.194;2023-02-28T15:59:27;5.40;;;4.70;;
1390;SDS011;690;51.454;7.194;2023-02-28T16:02:04;4.63;;;4.13;;
1390;SDS011;690;51.454;7.194;2023-02-28T16:04:54;5.17;;;3.90;;
1390;SDS011;690;51.454;7.194;2023-02-28T16:07:24;4.30;;;3.73;;
1390;SDS011;690;51.454;7.194;2023-02-28T16:09:51;5.23;;;3.50;;
1390;SDS011;690;51.454;7.194;2023-02-28T16:12:18;5.40;;;3.33;;
1390;SDS011;690;51.454;7.194;2023-02-28T16:14:46;5.13;;;4.10;;
1390;SDS011;690;51.454;7.194;2023-02-28T16:17:18;4.97;;;3.97;;
1390;SDS011;690;51.454;7.194;2023-02-28T16:19:46;4.73;;;3.80;;
1390;SDS011;690;51.454;7.194;2023-02-28T16:22:13;20.23;;;4.47;;
1390;SDS011;690;51.454;7.194;2023-02-28T16:24:41;23.97;;;4.93;;
1390;SDS011;690;51.454;7.194;2023-02-28T16:27:10;5.17;;;3.40;;
1390;SDS011;690;51.454;7.194;2023-02-28T16:29:45;6.67;;;3.77;;